Time;durP1;ratioP1;P1;durP2;ratioP2;P2;SDS_P1;SDS_P2;PMS_P1;PMS_P2;Temp;Humidity;BMP_temperature;BMP_pressure;BME280_temperature;BME280_humidity;BME280_pressure;Samples;Min_cycle;Max_cycle;Signal;HPM_P1;HPM_P2
2021/08/16 00:02:24;;;;;;;20.05;13.90;;;;;;;;;;1875395;76;21454;-47
2021/08/16 00:04:53;;;;;;;17.65;12.07;;;;;;;;;;1875376;76;21161;-47
2021/08/16 00:07:22;;;;;;;17.80;13.00;;;;;;;;;;1875342;76;21051;-49
2021/08/16 00:09:51;;;;;;;20.45;13.25;;;;;;;;;;1875422;76;21043;-48
2021/08/16 00:12:20;;;;;;;18.52;12.65;;;;;;;;;;1875271;76;21101;-49
2021/08/16 00:14:49;;;;;;;19.65;14.25;;;;;;;;;;1875431;76;21027;-50
2021/08/16 00:17:18;;;;;;;21.90;13.90;;;;;;;;;;1875359;76;21016;-47
2021/08/16 00:19:46;;;;;;;24.43;14.58;;;;;;;;;;1875259;76;21016;-49
2021/08/16 00:22:15;;;;;;;22.45;15.40;;;;;;;;;;1875412;75;21129;-47
2021/08/16 00:24:44;;;;;;;21.27;14.38;;;;;;;;;;1875401;76;21028;-49
2021/08/16 00:27:13;;;;;;;22.45;13.72;;;;;;;;;;1875396;76;21145;-50
2021/08/16 00:29:42;;;;;;;19.92;14.43;;;;;;;;;;1875406;76;21023;-48
2021/08/16 00:32:10;;;;;;;22.10;14.18;;;;;;;;;;1875350;76;21118;-49
2021/08/16 00:34:39;;;;;;;20.27;13.90;;;;;;;;;;1875267;76;21102;-49
2021/08/16 00:37:08;;;;;;;22.30;14.40;;;;;;;;;;1875297;76;21038;-50
2021/08/16 00:39:37;;;;;;;21.57;13.72;;;;;;;;;;1875380;76;21125;-48
2021/08/16 00:42:09;;;;;;;20.57;13.93;;;;;;;;;;1875378;76;21047;-47
2021/08/16 00:44:37;;;;;;;22.07;14.73;;;;;;;;;;1875401;75;21568;-48
2021/08/16 00:47:05;;;;;;;23.50;14.90;;;;;;;;;;1875320;76;21098;-48
2021/08/16 00:49:34;;;;;;;23.22;15.25;;;;;;;;;;1875342;76;21114;-50
2021/08/16 00:52:04;;;;;;;21.30;14.00;;;;;;;;;;1875342;76;21087;-49
2021/08/16 00:54:33;;;;;;;21.35;13.78;;;;;;;;;;1875384;76;21063;-50
2021/08/16 00:57:02;;;;;;;21.07;14.47;;;;;;;;;;1875255;76;21008;-47
2021/08/16 00:59:31;;;;;;;22.90;14.15;;;;;;;;;;1875338;76;21024;-47
2021/08/16 01:01:59;;;;;;;23.27;14.93;;;;;;;;;;1875271;76;21028;-50
2021/08/16 01:04:31;;;;;;;20.00;14.53;;;;;;;;;;1875382;76;21028;-50
2021/08/16 01:07:00;;;;;;;23.57;14.23;;;;;;;;;;1875343;76;21000;-47
2021/08/16 01:09:28;;;;;;;22.90;14.47;;;;;;;;;;1875375;76;21023;-50
2021/08/16 01:11:57;;;;;;;25.17;15.00;;;;;;;;;;1875152;76;21052;-50
2021/08/16 01:14:26;;;;;;;21.90;15.53;;;;;;;;;;1875289;76;21036;-46
2021/08/16 01:16:55;;;;;;;24.82;14.47;;;;;;;;;;1875251;76;21027;-48
2021/08/16 01:19:24;;;;;;;22.95;14.65;;;;;;;;;;1875298;76;21106;-46
2021/08/16 01:21:53;;;;;;;25.62;15.25;;;;;;;;;;1881845;75;21256;-50
2021/08/16 01:24:22;;;;;;;24.15;15.08;;;;;;;;;;1886937;76;21017;-50
2021/08/16 01:26:51;;;;;;;23.12;15.03;;;;;;;;;;1886913;76;21111;-48
2021/08/16 01:29:21;;;;;;;21.25;15.10;;;;;;;;;;1886918;76;21064;-49
2021/08/16 01:31:50;;;;;;;21.68;14.15;;;;;;;;;;1886866;76;21206;-48
2021/08/16 01:34:18;;;;;;;22.82;15.30;;;;;;;;;;1887013;76;21091;-49
2021/08/16 01:36:47;;;;;;;21.02;14.70;;;;;;;;;;1887021;76;21080;-50
2021/08/16 01:39:16;;;;;;;19.23;14.18;;;;;;;;;;1886883;76;21041;-47
2021/08/16 01:41:47;;;;;;;21.33;14.07;;;;;;;;;;1887033;76;21033;-50
2021/08/16 01:44:16;;;;;;;19.20;13.48;;;;;;;;;;1886998;75;21057;-49
2021/08/16 01:46:45;;;;;;;26.30;14.20;;;;;;;;;;1886988;76;21009;-50
2021/08/16 01:49:14;;;;;;;21.85;14.35;;;;;;;;;;1886918;76;21150;-50
2021/08/16 01:51:43;;;;;;;24.00;14.10;;;;;;;;;;1886928;76;21053;-49
2021/08/16 01:54:11;;;;;;;24.63;14.63;;;;;;;;;;1886987;76;21099;-47
2021/08/16 01:56:40;;;;;;;24.25;14.03;;;;;;;;;;1886886;76;21025;-47
2021/08/16 01:59:09;;;;;;;22.27;15.20;;;;;;;;;;1886913;76;21095;-49
2021/08/16 02:01:37;;;;;;;21.30;14.00;;;;;;;;;;1886887;76;21033;-50
2021/08/16 02:04:06;;;;;;;23.52;13.80;;;;;;;;;;1886892;76;21005;-50
2021/08/16 02:06:35;;;;;;;20.35;14.00;;;;;;;;;;1886870;76;21089;-47
2021/08/16 02:09:04;;;;;;;25.97;13.90;;;;;;;;;;1886887;76;21068;-48
2021/08/16 02:11:33;;;;;;;19.75;13.15;;;;;;;;;;1886855;76;21021;-50
2021/08/16 02:14:02;;;;;;;22.73;14.25;;;;;;;;;;1886911;76;21021;-50
2021/08/16 02:16:30;;;;;;;19.65;14.07;;;;;;;;;;1886972;76;21073;-48
2021/08/16 02:18:59;;;;;;;21.68;14.73;;;;;;;;;;1887013;76;21045;-48
2021/08/16 02:21:28;;;;;;;21.97;13.70;;;;;;;;;;1884744;75;21129;-49
2021/08/16 02:23:57;;;;;;;23.40;14.90;;;;;;;;;;1875372;76;21110;-50
2021/08/16 02:26:25;;;;;;;23.12;13.58;;;;;;;;;;1875428;76;21106;-50
2021/08/16 02:28:54;;;;;;;24.60;14.78;;;;;;;;;;1875235;76;21047;-47
2021/08/16 02:31:26;;;;;;;20.00;13.50;;;;;;;;;;1875192;76;21175;-47
2021/08/16 02:33:55;;;;;;;23.50;13.60;;;;;;;;;;1875455;76;21097;-50
2021/08/16 02:36:24;;;;;;;20.72;13.70;;;;;;;;;;1875282;76;21076;-50
2021/08/16 02:38:53;;;;;;;18.75;13.22;;;;;;;;;;1875298;76;21016;-49
2021/08/16 02:41:22;;;;;;;19.05;13.88;;;;;;;;;;1875284;76;21106;-49
2021/08/16 02:43:50;;;;;;;20.82;14.47;;;;;;;;;;1875341;76;21016;-46
2021/08/16 02:46:19;;;;;;;21.97;13.70;;;;;;;;;;1875350;76;21040;-50
2021/08/16 02:48:48;;;;;;;24.07;14.23;;;;;;;;;;1875343;76;21114;-50
2021/08/16 02:51:17;;;;;;;18.85;12.95;;;;;;;;;;1875352;76;21110;-48
2021/08/16 02:53:46;;;;;;;25.80;14.58;;;;;;;;;;1875383;76;21044;-50
2021/08/16 02:56:15;;;;;;;20.97;13.72;;;;;;;;;;1875237;76;21047;-49
2021/08/16 02:58:44;;;;;;;17.45;12.60;;;;;;;;;;1875269;76;21141;-48
2021/08/16 03:01:12;;;;;;;19.40;13.13;;;;;;;;;;1875281;76;21028;-49
2021/08/16 03:03:41;;;;;;;23.32;14.40;;;;;;;;;;1875439;76;21028;-47
2021/08/16 03:06:10;;;;;;;20.23;14.15;;;;;;;;;;1875291;76;21012;-49
2021/08/16 03:08:39;;;;;;;23.12;13.30;;;;;;;;;;1875396;76;21032;-47
2021/08/16 03:11:08;;;;;;;21.62;13.35;;;;;;;;;;1875300;76;21043;-48
2021/08/16 03:13:36;;;;;;;24.47;14.83;;;;;;;;;;1875389;76;21031;-47
2021/08/16 03:16:05;;;;;;;18.85;13.95;;;;;;;;;;1875326;76;21044;-49
2021/08/16 03:18:34;;;;;;;20.95;13.13;;;;;;;;;;1875324;76;21035;-47
2021/08/16 03:21:03;;;;;;;22.05;14.25;;;;;;;;;;1875320;76;21052;-50
2021/08/16 03:23:32;;;;;;;18.62;12.98;;;;;;;;;;1875441;75;21063;-47
2021/08/16 03:26:01;;;;;;;20.82;12.63;;;;;;;;;;1875313;76;21040;-50
2021/08/16 03:28:30;;;;;;;21.40;13.53;;;;;;;;;;1875285;76;21044;-46
2021/08/16 03:30:58;;;;;;;27.77;17.32;;;;;;;;;;1875316;76;21039;-48
2021/08/16 03:33:27;;;;;;;18.30;12.60;;;;;;;;;;1875291;76;21027;-51
2021/08/16 03:35:56;;;;;;;18.82;13.48;;;;;;;;;;1875185;76;21016;-50
2021/08/16 03:38:25;;;;;;;22.32;14.65;;;;;;;;;;1875176;76;21104;-50
2021/08/16 03:40:53;;;;;;;20.75;13.68;;;;;;;;;;1875229;76;21075;-49
2021/08/16 03:43:22;;;;;;;21.90;13.85;;;;;;;;;;1875303;76;21098;-47
2021/08/16 03:45:51;;;;;;;19.05;12.58;;;;;;;;;;1875447;76;21111;-48
2021/08/16 03:48:19;;;;;;;23.18;12.63;;;;;;;;;;1875190;76;21028;-47
2021/08/16 03:50:48;;;;;;;18.67;12.47;;;;;;;;;;1875316;76;21101;-48
2021/08/16 03:53:17;;;;;;;24.67;15.00;;;;;;;;;;1875314;76;21056;-51
2021/08/16 03:55:46;;;;;;;23.62;14.85;;;;;;;;;;1875211;76;21000;-48
2021/08/16 03:58:15;;;;;;;22.02;13.98;;;;;;;;;;1875246;76;21035;-50
2021/08/16 04:00:43;;;;;;;23.60;15.05;;;;;;;;;;1875140;76;21032;-49
2021/08/16 04:03:13;;;;;;;24.70;14.47;;;;;;;;;;1875546;76;21019;-48
2021/08/16 04:05:42;;;;;;;23.75;14.35;;;;;;;;;;1875328;76;21039;-49
2021/08/16 04:08:11;;;;;;;25.92;14.47;;;;;;;;;;1875238;76;21028;-48
2021/08/16 04:10:40;;;;;;;23.67;14.85;;;;;;;;;;1875396;76;21090;-47
2021/08/16 04:13:09;;;;;;;26.40;14.00;;;;;;;;;;1875131;76;21110;-48
2021/08/16 04:15:38;;;;;;;22.75;13.53;;;;;;;;;;1875299;76;21035;-51
2021/08/16 04:18:07;;;;;;;21.97;13.90;;;;;;;;;;1875309;76;21019;-50
2021/08/16 04:20:35;;;;;;;20.40;14.15;;;;;;;;;;1875383;76;21032;-50
2021/08/16 04:23:04;;;;;;;21.42;13.75;;;;;;;;;;1845017;76;21119;-47
2021/08/16 04:25:33;;;;;;;21.62;14.18;;;;;;;;;;1875438;76;21201;-47
2021/08/16 04:28:02;;;;;;;20.90;13.72;;;;;;;;;;1875452;76;21047;-49
2021/08/16 04:30:31;;;;;;;22.13;13.85;;;;;;;;;;1875341;76;21039;-49
2021/08/16 04:33:00;;;;;;;21.93;12.88;;;;;;;;;;1875339;76;21098;-47
2021/08/16 04:35:28;;;;;;;21.25;12.82;;;;;;;;;;1875477;76;21094;-50
2021/08/16 04:37:57;;;;;;;20.75;14.20;;;;;;;;;;1875583;76;21052;-50
2021/08/16 04:40:26;;;;;;;16.12;12.07;;;;;;;;;;1875308;76;21020;-49
2021/08/16 04:42:55;;;;;;;17.62;12.35;;;;;;;;;;1875487;76;21035;-50
2021/08/16 04:45:24;;;;;;;20.08;12.98;;;;;;;;;;1875336;76;21091;-47
2021/08/16 04:47:53;;;;;;;16.67;10.48;;;;;;;;;;1875406;76;21035;-50
2021/08/16 04:50:23;;;;;;;22.20;13.05;;;;;;;;;;1875385;76;21044;-48
2021/08/16 04:52:52;;;;;;;17.82;11.12;;;;;;;;;;1875243;76;21023;-47
2021/08/16 04:55:21;;;;;;;18.05;11.03;;;;;;;;;;1875357;76;21012;-50
2021/08/16 04:57:50;;;;;;;28.32;21.55;;;;;;;;;;1875312;76;21490;-50
2021/08/16 05:00:23;;;;;;;18.30;11.55;;;;;;;;;;1875309;76;21027;-50
2021/08/16 05:02:49;;;;;;;17.32;10.48;;;;;;;;;;1874666;76;21462;-47
2021/08/16 05:05:18;;;;;;;16.85;11.30;;;;;;;;;;1875146;76;21156;-49
2021/08/16 05:07:48;;;;;;;16.30;10.63;;;;;;;;;;1875202;76;21027;-50
2021/08/16 05:10:17;;;;;;;17.65;11.40;;;;;;;;;;1875174;76;21044;-49
2021/08/16 05:12:46;;;;;;;18.95;11.43;;;;;;;;;;1875313;76;21044;-49
2021/08/16 05:15:15;;;;;;;21.55;11.18;;;;;;;;;;1875326;76;21104;-51
2021/08/16 05:17:44;;;;;;;17.73;11.33;;;;;;;;;;1875280;76;21048;-47
2021/08/16 05:20:13;;;;;;;18.37;11.30;;;;;;;;;;1875186;76;21188;-47
2021/08/16 05:22:43;;;;;;;18.87;11.08;;;;;;;;;;1876209;74;21052;-48
2021/08/16 05:25:13;;;;;;;20.02;12.33;;;;;;;;;;1887019;76;21029;-50
2021/08/16 05:27:41;;;;;;;16.77;10.10;;;;;;;;;;1886992;76;21118;-48
2021/08/16 05:30:10;;;;;;;15.65;10.15;;;;;;;;;;1886870;76;21131;-48
2021/08/16 05:32:39;;;;;;;18.57;10.43;;;;;;;;;;1886916;76;21099;-50
2021/08/16 05:35:08;;;;;;;15.25;9.08;;;;;;;;;;1886866;76;21029;-49
2021/08/16 05:37:38;;;;;;;13.95;9.53;;;;;;;;;;1886825;76;21045;-46
2021/08/16 05:40:07;;;;;;;15.55;9.38;;;;;;;;;;1886831;76;21115;-50
2021/08/16 05:42:36;;;;;;;13.78;9.18;;;;;;;;;;1886957;76;21029;-50
2021/08/16 05:45:05;;;;;;;14.93;9.13;;;;;;;;;;1886906;76;21084;-50
2021/08/16 05:47:34;;;;;;;17.02;9.35;;;;;;;;;;1886915;76;21107;-50
2021/08/16 05:50:04;;;;;;;15.35;8.70;;;;;;;;;;1886880;76;21045;-50
2021/08/16 05:52:33;;;;;;;15.55;9.18;;;;;;;;;;1886932;76;21440;-48
2021/08/16 05:55:02;;;;;;;15.72;8.35;;;;;;;;;;1886944;76;21053;-47
2021/08/16 05:57:30;;;;;;;15.53;8.70;;;;;;;;;;1886926;76;21041;-49
2021/08/16 05:59:59;;;;;;;15.25;7.87;;;;;;;;;;1886815;76;21147;-50
2021/08/16 06:02:30;;;;;;;15.63;8.60;;;;;;;;;;1886948;76;21034;-50
2021/08/16 06:04:58;;;;;;;16.73;9.03;;;;;;;;;;1886902;76;21022;-50
2021/08/16 06:07:27;;;;;;;14.93;9.40;;;;;;;;;;1886859;76;21104;-47
2021/08/16 06:09:56;;;;;;;13.75;8.68;;;;;;;;;;1886819;76;21022;-49
2021/08/16 06:12:25;;;;;;;12.63;8.88;;;;;;;;;;1886847;76;21025;-48
2021/08/16 06:14:54;;;;;;;15.40;8.43;;;;;;;;;;1886945;76;21054;-50
2021/08/16 06:17:23;;;;;;;14.35;8.65;;;;;;;;;;1886993;76;21045;-50
2021/08/16 06:19:52;;;;;;;11.22;8.55;;;;;;;;;;1886987;76;21046;-49
2021/08/16 06:22:20;;;;;;;12.33;8.30;;;;;;;;;;1887127;76;21119;-50
2021/08/16 06:24:49;;;;;;;15.10;8.65;;;;;;;;;;1887055;75;21253;-47
2021/08/16 06:27:18;;;;;;;16.25;8.20;;;;;;;;;;1886966;76;21115;-48
2021/08/16 06:29:47;;;;;;;11.97;7.58;;;;;;;;;;1886947;76;21046;-47
2021/08/16 06:32:16;;;;;;;13.00;8.15;;;;;;;;;;1887055;76;21119;-50
2021/08/16 06:34:45;;;;;;;14.33;7.45;;;;;;;;;;1886997;76;21097;-49
2021/08/16 06:37:14;;;;;;;14.10;7.40;;;;;;;;;;1887004;76;21116;-49
2021/08/16 06:39:43;;;;;;;11.50;7.97;;;;;;;;;;1886879;76;21111;-50
2021/08/16 06:42:12;;;;;;;13.18;7.67;;;;;;;;;;1887097;76;21030;-50
2021/08/16 06:44:41;;;;;;;10.50;6.20;;;;;;;;;;1886917;76;21053;-50
2021/08/16 06:47:10;;;;;;;13.53;7.80;;;;;;;;;;1887054;76;21115;-48
2021/08/16 06:49:38;;;;;;;11.65;6.85;;;;;;;;;;1887056;76;21041;-49
2021/08/16 06:52:07;;;;;;;10.72;6.87;;;;;;;;;;1887034;76;21042;-50
2021/08/16 06:54:36;;;;;;;10.28;6.95;;;;;;;;;;1886957;76;21053;-51
2021/08/16 06:57:05;;;;;;;8.18;6.08;;;;;;;;;;1886930;76;21068;-50
2021/08/16 06:59:34;;;;;;;11.40;6.90;;;;;;;;;;1886913;76;21046;-47
2021/08/16 07:02:03;;;;;;;9.45;6.87;;;;;;;;;;1886903;76;21025;-49
2021/08/16 07:04:32;;;;;;;9.38;6.70;;;;;;;;;;1886917;76;21119;-49
2021/08/16 07:07:01;;;;;;;7.75;5.97;;;;;;;;;;1887037;76;21129;-50
2021/08/16 07:09:29;;;;;;;8.13;5.85;;;;;;;;;;1887011;76;21025;-50
2021/08/16 07:11:58;;;;;;;8.28;6.30;;;;;;;;;;1887034;76;21095;-49
2021/08/16 07:14:27;;;;;;;8.33;6.33;;;;;;;;;;1886920;76;21033;-50
2021/08/16 07:16:57;;;;;;;9.48;6.72;;;;;;;;;;1887044;76;21058;-51
2021/08/16 07:19:26;;;;;;;13.08;7.33;;;;;;;;;;1886975;76;21057;-48
2021/08/16 07:21:55;;;;;;;13.13;5.78;;;;;;;;;;1886834;76;21112;-50
2021/08/16 07:24:24;;;;;;;10.90;6.45;;;;;;;;;;1886785;76;21073;-50
2021/08/16 07:26:53;;;;;;;13.32;6.95;;;;;;;;;;1886921;76;21041;-50
2021/08/16 07:29:21;;;;;;;9.38;6.35;;;;;;;;;;1885483;76;21152;-50
2021/08/16 07:31:51;;;;;;;11.12;5.95;;;;;;;;;;1886238;76;21085;-49
2021/08/16 07:34:19;;;;;;;9.13;5.58;;;;;;;;;;1886137;76;21046;-47
2021/08/16 07:36:49;;;;;;;8.55;5.47;;;;;;;;;;1886039;76;21045;-48
2021/08/16 07:39:18;;;;;;;6.00;5.00;;;;;;;;;;1886167;76;21158;-51
2021/08/16 07:41:47;;;;;;;6.97;5.60;;;;;;;;;;1885903;76;21049;-49
2021/08/16 07:44:16;;;;;;;7.67;5.45;;;;;;;;;;1886147;76;21109;-46
2021/08/16 07:46:44;;;;;;;10.72;5.62;;;;;;;;;;1886253;76;21045;-50
2021/08/16 07:49:13;;;;;;;11.95;5.72;;;;;;;;;;1886387;76;21111;-49
2021/08/16 07:51:42;;;;;;;8.45;6.83;;;;;;;;;;1886175;76;21166;-47
2021/08/16 07:54:10;;;;;;;9.58;6.58;;;;;;;;;;1886272;76;21104;-49
2021/08/16 07:56:39;;;;;;;9.18;6.35;;;;;;;;;;1886310;76;21033;-51
2021/08/16 07:59:08;;;;;;;10.00;6.42;;;;;;;;;;1886134;76;21099;-55
2021/08/16 08:01:37;;;;;;;7.75;5.95;;;;;;;;;;1886213;76;21053;-52
2021/08/16 08:04:06;;;;;;;8.03;6.33;;;;;;;;;;1886363;76;21154;-51
2021/08/16 08:06:35;;;;;;;8.33;4.70;;;;;;;;;;1886222;76;21103;-52
2021/08/16 08:09:03;;;;;;;10.65;7.12;;;;;;;;;;1886222;76;21100;-48
2021/08/16 08:11:33;;;;;;;7.33;5.15;;;;;;;;;;1886137;76;21049;-48
2021/08/16 08:14:02;;;;;;;9.73;5.47;;;;;;;;;;1888808;76;21530;-48
2021/08/16 08:16:31;;;;;;;10.10;6.95;;;;;;;;;;1892850;76;21116;-51
2021/08/16 08:19:00;;;;;;;12.58;5.45;;;;;;;;;;1892697;76;21041;-48
2021/08/16 08:21:28;;;;;;;8.05;5.12;;;;;;;;;;1892458;76;21084;-50
2021/08/16 08:23:57;;;;;;;7.92;5.17;;;;;;;;;;1892556;76;21096;-50
2021/08/16 08:26:26;;;;;;;10.35;5.67;;;;;;;;;;1886189;76;21181;-49
2021/08/16 08:28:55;;;;;;;6.55;4.95;;;;;;;;;;1886088;76;21119;-50
2021/08/16 08:31:25;;;;;;;6.95;4.87;;;;;;;;;;1886102;76;21034;-47
2021/08/16 08:33:54;;;;;;;6.08;5.30;;;;;;;;;;1885929;75;21037;-47
2021/08/16 08:36:22;;;;;;;7.75;5.20;;;;;;;;;;1886145;76;21033;-47
2021/08/16 08:38:51;;;;;;;11.40;5.30;;;;;;;;;;1886206;76;21349;-48
2021/08/16 08:41:21;;;;;;;6.28;4.67;;;;;;;;;;1885650;75;21128;-51
2021/08/16 08:43:51;;;;;;;10.60;5.20;;;;;;;;;;1885610;76;21109;-47
2021/08/16 08:46:20;;;;;;;7.80;5.15;;;;;;;;;;1885999;76;21568;-51
2021/08/16 08:48:49;;;;;;;10.60;5.28;;;;;;;;;;1886034;76;21277;-49
2021/08/16 08:51:19;;;;;;;8.28;4.60;;;;;;;;;;1886156;76;21102;-50
2021/08/16 08:53:47;;;;;;;7.67;5.53;;;;;;;;;;1885788;76;21203;-48
2021/08/16 08:56:16;;;;;;;8.78;5.20;;;;;;;;;;1885708;76;21094;-50
2021/08/16 08:58:45;;;;;;;7.53;4.97;;;;;;;;;;1872477;76;21094;-48
2021/08/16 09:01:14;;;;;;;9.10;4.72;;;;;;;;;;1870915;77;21149;-48
2021/08/16 09:03:49;;;;;;;7.53;5.10;;;;;;;;;;1870687;77;21016;-48
2021/08/16 09:06:28;;;;;;;8.55;4.83;;;;;;;;;;1870785;77;21466;-51
2021/08/16 09:08:57;;;;;;;9.30;4.92;;;;;;;;;;1873727;76;21075;-51
2021/08/16 09:11:27;;;;;;;8.30;4.70;;;;;;;;;;1870939;77;21101;-48
2021/08/16 09:14:03;;;;;;;7.55;4.62;;;;;;;;;;1872928;76;21291;-49
2021/08/16 09:16:41;;;;;;;7.58;4.87;;;;;;;;;;1870283;77;21129;-49
2021/08/16 09:19:19;;;;;;;7.70;4.97;;;;;;;;;;1867811;77;21500;-49
2021/08/16 09:22:02;;;;;;;8.30;4.72;;;;;;;;;;1869948;77;21047;-49
2021/08/16 09:24:40;;;;;;;13.85;4.65;;;;;;;;;;1870386;76;21111;-50
2021/08/16 09:27:20;;;;;;;7.45;5.53;;;;;;;;;;1892367;76;21103;-50
2021/08/16 09:29:55;;;;;;;8.65;4.60;;;;;;;;;;1892242;76;21086;-50
2021/08/16 09:32:39;;;;;;;8.68;5.97;;;;;;;;;;1895539;75;21087;-50
2021/08/16 09:35:14;;;;;;;5.40;4.58;;;;;;;;;;1893853;76;21040;-48
2021/08/16 09:37:52;;;;;;;8.48;6.00;;;;;;;;;;1894973;76;21049;-47
2021/08/16 09:40:30;;;;;;;8.48;5.15;;;;;;;;;;1893575;74;21530;-51
2021/08/16 09:43:05;;;;;;;8.23;4.83;;;;;;;;;;1894492;75;21493;-54
2021/08/16 09:45:40;;;;;;;7.10;5.15;;;;;;;;;;1894939;74;21130;-51
2021/08/16 09:48:13;;;;;;;8.68;5.47;;;;;;;;;;1896765;75;21443;-49
2021/08/16 09:50:46;;;;;;;6.95;4.70;;;;;;;;;;1893493;76;21076;-51
2021/08/16 09:53:21;;;;;;;10.23;5.00;;;;;;;;;;1893133;75;21098;-54
2021/08/16 09:56:04;;;;;;;8.88;5.00;;;;;;;;;;1891731;76;21559;-52
2021/08/16 09:58:38;;;;;;;8.60;4.95;;;;;;;;;;1894208;76;21114;-50
2021/08/16 10:01:16;;;;;;;8.73;5.15;;;;;;;;;;1894675;76;21139;-49
2021/08/16 10:03:55;;;;;;;11.45;7.25;;;;;;;;;;1892799;76;21095;-48
2021/08/16 10:06:30;;;;;;;6.47;4.22;;;;;;;;;;1891530;76;21181;-48
2021/08/16 10:09:05;;;;;;;10.03;5.22;;;;;;;;;;1894982;75;21088;-51
2021/08/16 10:11:39;;;;;;;;;;;;;;;;;;1895934;75;21024;-52
2021/08/16 10:14:09;;;;;;;7.50;4.80;;;;;;;;;;1895128;76;20146;-50
2021/08/16 10:16:40;;;;;;;6.67;4.20;;;;;;;;;;1895470;76;21057;-50
2021/08/16 10:19:12;;;;;;;7.17;4.50;;;;;;;;;;1895238;76;21072;-51
2021/08/16 10:21:42;;;;;;;7.00;4.60;;;;;;;;;;1895844;76;21033;-48
2021/08/16 10:24:17;;;;;;;5.20;4.37;;;;;;;;;;1895584;76;21033;-51
2021/08/16 10:26:56;;;;;;;7.35;4.95;;;;;;;;;;1879107;75;21180;-51
2021/08/16 10:29:25;;;;;;;5.50;4.00;;;;;;;;;;1873455;76;21080;-51
2021/08/16 10:31:54;;;;;;;5.60;4.58;;;;;;;;;;1874246;76;21082;-51
2021/08/16 10:34:27;;;;;;;5.97;4.78;;;;;;;;;;1874361;76;21039;-48
2021/08/16 10:36:56;;;;;;;6.00;4.53;;;;;;;;;;1874456;76;21024;-52
2021/08/16 10:39:41;;;;;;;7.08;4.25;;;;;;;;;;1874753;76;21004;-52
2021/08/16 10:42:17;;;;;;;5.22;4.22;;;;;;;;;;1874518;76;21149;-52
2021/08/16 10:44:50;;;;;;;5.58;4.60;;;;;;;;;;1872232;76;21157;-51
2021/08/16 10:47:26;;;;;;;8.00;5.10;;;;;;;;;;1875135;76;21059;-51
2021/08/16 10:50:05;;;;;;;7.92;4.75;;;;;;;;;;1875190;75;21036;-51
2021/08/16 10:52:34;;;;;;;7.83;4.45;;;;;;;;;;1875247;76;21138;-51
2021/08/16 10:55:13;;;;;;;7.30;3.87;;;;;;;;;;1875253;76;21044;-50
2021/08/16 10:57:42;;;;;;;6.97;4.33;;;;;;;;;;1875264;76;21105;-51
2021/08/16 11:00:12;;;;;;;7.40;4.25;;;;;;;;;;1875213;76;21044;-51
2021/08/16 11:02:41;;;;;;;6.35;4.37;;;;;;;;;;1875124;76;21035;-48
2021/08/16 11:05:11;;;;;;;11.80;4.85;;;;;;;;;;1875233;76;21093;-51
2021/08/16 11:07:43;;;;;;;10.10;4.90;;;;;;;;;;1875414;76;21037;-50
2021/08/16 11:10:12;;;;;;;6.58;4.03;;;;;;;;;;1875293;76;21056;-51
2021/08/16 11:12:44;;;;;;;7.15;4.15;;;;;;;;;;1875346;76;21032;-51
2021/08/16 11:15:14;;;;;;;6.03;4.92;;;;;;;;;;1875307;76;21020;-51
2021/08/16 11:17:43;;;;;;;12.47;4.47;;;;;;;;;;1875316;76;21109;-50
2021/08/16 11:20:15;;;;;;;6.45;4.42;;;;;;;;;;1875326;76;21161;-50
2021/08/16 11:22:54;;;;;;;8.90;5.12;;;;;;;;;;1875279;76;21039;-52
2021/08/16 11:25:23;;;;;;;9.48;4.83;;;;;;;;;;1875384;75;21106;-51
2021/08/16 11:27:52;;;;;;;7.28;4.55;;;;;;;;;;1875405;76;21028;-49
2021/08/16 11:30:21;;;;;;;13.22;5.20;;;;;;;;;;1875312;76;21044;-49
2021/08/16 11:32:50;;;;;;;8.58;4.10;;;;;;;;;;1875323;76;21032;-52
2021/08/16 11:35:19;;;;;;;5.45;4.15;;;;;;;;;;1875102;76;21051;-50
2021/08/16 11:37:51;;;;;;;5.65;5.10;;;;;;;;;;1875025;76;21020;-51
2021/08/16 11:40:20;;;;;;;7.80;4.70;;;;;;;;;;1874795;76;21439;-52
2021/08/16 11:42:48;;;;;;;7.70;4.22;;;;;;;;;;1874008;76;21004;-51
2021/08/16 11:45:18;;;;;;;9.10;4.72;;;;;;;;;;1874759;76;21102;-52
2021/08/16 11:47:49;;;;;;;8.68;4.30;;;;;;;;;;1874806;76;21541;-50
2021/08/16 11:50:19;;;;;;;10.25;5.60;;;;;;;;;;1875048;76;21028;-50
2021/08/16 11:52:52;;;;;;;7.67;4.53;;;;;;;;;;1875013;76;21031;-51
2021/08/16 11:55:19;;;;;;;7.58;4.62;;;;;;;;;;1873932;76;21567;-51
2021/08/16 11:57:49;;;;;;;6.95;4.50;;;;;;;;;;1874721;76;21106;-51
2021/08/16 12:00:19;;;;;;;6.53;4.22;;;;;;;;;;1875145;76;21036;-51
2021/08/16 12:02:48;;;;;;;7.10;4.65;;;;;;;;;;1875390;75;21039;-50
2021/08/16 12:05:17;;;;;;;6.00;4.35;;;;;;;;;;1875395;76;21079;-52
2021/08/16 12:07:46;;;;;;;10.35;5.40;;;;;;;;;;1875336;76;21105;-52
2021/08/16 12:10:19;;;;;;;5.95;4.97;;;;;;;;;;1875380;76;21067;-53
2021/08/16 12:13:00;;;;;;;5.53;4.30;;;;;;;;;;1875204;76;21056;-51
2021/08/16 12:15:30;;;;;;;9.50;4.75;;;;;;;;;;1875132;76;21109;-52
2021/08/16 12:18:06;;;;;;;10.50;4.10;;;;;;;;;;1873534;76;21118;-52
2021/08/16 12:20:42;;;;;;;4.85;3.62;;;;;;;;;;1875271;76;21031;-52
2021/08/16 12:23:12;;;;;;;6.00;4.40;;;;;;;;;;1875205;76;21040;-51
2021/08/16 12:25:47;;;;;;;6.05;4.40;;;;;;;;;;1873348;76;21031;-52
2021/08/16 12:28:17;;;;;;;8.25;4.90;;;;;;;;;;1875383;76;21075;-52
2021/08/16 12:30:46;;;;;;;6.55;4.60;;;;;;;;;;1875288;76;21044;-53
2021/08/16 12:33:17;;;;;;;5.25;4.05;;;;;;;;;;1875189;76;21032;-52
2021/08/16 12:35:56;;;;;;;9.30;4.60;;;;;;;;;;1875234;76;21020;-50
2021/08/16 12:38:28;;;;;;;11.40;4.58;;;;;;;;;;1875371;76;21004;-50
2021/08/16 12:41:01;;;;;;;5.95;4.08;;;;;;;;;;1875171;76;21082;-51
2021/08/16 12:43:43;;;;;;;4.70;4.25;;;;;;;;;;1875293;76;21007;-51
2021/08/16 12:46:12;;;;;;;7.80;4.72;;;;;;;;;;1875224;76;21110;-51
2021/08/16 12:48:42;;;;;;;5.28;3.75;;;;;;;;;;1875269;76;21064;-50
2021/08/16 12:51:11;;;;;;;6.35;4.05;;;;;;;;;;1875302;76;21024;-52
2021/08/16 12:53:40;;;;;;;8.23;3.92;;;;;;;;;;1875254;76;21016;-51
2021/08/16 12:56:09;;;;;;;8.58;4.87;;;;;;;;;;1875350;76;21036;-48
2021/08/16 12:58:38;;;;;;;9.10;4.33;;;;;;;;;;1875261;76;21043;-48
2021/08/16 13:01:07;;;;;;;5.20;3.75;;;;;;;;;;1875214;76;21087;-50
2021/08/16 13:03:35;;;;;;;7.72;4.67;;;;;;;;;;1875235;76;21043;-50
2021/08/16 13:06:04;;;;;;;8.18;4.45;;;;;;;;;;1875247;76;21044;-51
2021/08/16 13:08:33;;;;;;;5.30;4.33;;;;;;;;;;1875340;76;21035;-51
2021/08/16 13:11:02;;;;;;;7.62;4.10;;;;;;;;;;1875263;76;21105;-50
2021/08/16 13:13:31;;;;;;;6.30;4.30;;;;;;;;;;1875215;76;21035;-51
2021/08/16 13:15:59;;;;;;;5.35;4.17;;;;;;;;;;1875361;76;21106;-50
2021/08/16 13:18:28;;;;;;;6.78;3.37;;;;;;;;;;1875206;76;21024;-51
2021/08/16 13:20:57;;;;;;;6.75;4.10;;;;;;;;;;1875342;76;21076;-51
2021/08/16 13:23:26;;;;;;;9.90;4.30;;;;;;;;;;1875225;76;21052;-48
2021/08/16 13:25:55;;;;;;;7.53;4.60;;;;;;;;;;1875355;76;21113;-49
2021/08/16 13:28:24;;;;;;;9.03;4.25;;;;;;;;;;1875297;75;21036;-50
2021/08/16 13:30:53;;;;;;;4.25;3.77;;;;;;;;;;1875502;76;21172;-49
2021/08/16 13:33:23;;;;;;;7.67;3.70;;;;;;;;;;1875254;76;21101;-51
2021/08/16 13:35:52;;;;;;;5.87;4.12;;;;;;;;;;1875390;76;21103;-52
2021/08/16 13:38:21;;;;;;;4.97;3.85;;;;;;;;;;1875226;76;21038;-51
2021/08/16 13:40:49;;;;;;;7.62;4.53;;;;;;;;;;1875353;76;21016;-52
2021/08/16 13:43:18;;;;;;;13.72;5.40;;;;;;;;;;1875273;76;21110;-51
2021/08/16 13:45:49;;;;;;;4.55;3.83;;;;;;;;;;1875265;76;21039;-51
2021/08/16 13:48:17;;;;;;;6.62;4.85;;;;;;;;;;1875140;76;21194;-52
2021/08/16 13:50:46;;;;;;;7.87;4.67;;;;;;;;;;1875104;76;21110;-50
2021/08/16 13:53:16;;;;;;;14.10;5.28;;;;;;;;;;1875076;76;21052;-50
2021/08/16 13:55:44;;;;;;;6.03;4.40;;;;;;;;;;1875155;76;21004;-52
2021/08/16 13:58:13;;;;;;;10.55;5.62;;;;;;;;;;1875204;76;21023;-51
2021/08/16 14:00:42;;;;;;;6.10;4.70;;;;;;;;;;1875353;76;21035;-50
2021/08/16 14:03:11;;;;;;;12.03;4.60;;;;;;;;;;1875183;76;21036;-51
2021/08/16 14:05:39;;;;;;;4.65;3.67;;;;;;;;;;1875301;76;21039;-50
2021/08/16 14:08:08;;;;;;;5.70;4.20;;;;;;;;;;1875285;76;21044;-52
2021/08/16 14:10:37;;;;;;;5.60;4.50;;;;;;;;;;1875245;76;21079;-51
2021/08/16 14:13:06;;;;;;;8.25;3.80;;;;;;;;;;1875274;76;21016;-51
2021/08/16 14:15:34;;;;;;;8.45;4.60;;;;;;;;;;1875275;76;21106;-49
2021/08/16 14:18:03;;;;;;;6.70;3.75;;;;;;;;;;1875290;76;21109;-52
2021/08/16 14:20:32;;;;;;;7.33;5.35;;;;;;;;;;1875301;76;21012;-52
2021/08/16 14:23:01;;;;;;;10.58;5.65;;;;;;;;;;1875149;76;21040;-52
2021/08/16 14:25:30;;;;;;;5.60;4.30;;;;;;;;;;1875331;76;21060;-52
2021/08/16 14:27:58;;;;;;;6.30;4.22;;;;;;;;;;1875222;75;21056;-51
2021/08/16 14:30:27;;;;;;;6.55;4.12;;;;;;;;;;1875238;76;21028;-51
2021/08/16 14:32:56;;;;;;;7.35;5.80;;;;;;;;;;1875270;76;21028;-52
2021/08/16 14:35:25;;;;;;;8.15;5.17;;;;;;;;;;1875328;76;21091;-52
2021/08/16 14:37:53;;;;;;;7.17;4.62;;;;;;;;;;1875085;76;21040;-52
2021/08/16 14:40:22;;;;;;;7.03;5.15;;;;;;;;;;1875278;76;21036;-52
2021/08/16 14:42:51;;;;;;;6.78;4.92;;;;;;;;;;1875300;76;21031;-52
2021/08/16 14:45:20;;;;;;;7.58;4.50;;;;;;;;;;1875210;76;21028;-51
2021/08/16 14:47:48;;;;;;;15.70;5.55;;;;;;;;;;1875338;76;21016;-51